Kanaskat, Washington
Current Conditions -  °F | °C
As of 2:53 AM on Monday 20 Oct 2014 (Local Time) from KRNT Reporting Station
Moderate Rain Moderate Rain  
Wind Chill: 59°   Ceiling: 8000
Heat Index: 59°   Visibility: NA
Dew Point: 57°   Wind: 5mph
Humidity: 93%   Direction: 140°SE
Pressure: 29.71"   Gusts: NA
Location:  47.3777°N, 121.913°W
Report Text: KRNT 200953Z AUTO 14004KT RA OVC080 15/14 A2971 RMK AO2 SLP067 P0005 T01500139 $
Loading
Personal Weather Stations






























Interactive Weather Map New forecast layout! Learn more

10-Day Weather Forecast

Advertisements
Track Severe Weather on mobile